Time;durP1;ratioP1;P1;durP2;ratioP2;P2;SDS_P1;SDS_P2;PMS_P1;PMS_P2;Temp;Humidity;BMP_temperature;BMP_pressure;BME280_temperature;BME280_humidity;BME280_pressure;Samples;Min_cycle;Max_cycle;Signal;HPM_P1;HPM_P2
2021/06/23 00:01:38;;;;;;;;;;;27.10;47.40;;;;;;1538830;76;753;-64
2021/06/23 00:03:40;;;;;;;;;;;27.10;47.60;;;;;;1550388;76;798;-65
2021/06/23 00:05:42;;;;;;;;;;;27.00;47.30;;;;;;1552645;76;1149;-64
2021/06/23 00:07:44;;;;;;;;;;;27.10;47.30;;;;;;1541969;74;742;-64
2021/06/23 00:09:45;;;;;;;;;;;27.00;47.30;;;;;;1539946;76;787;-64
2021/06/23 00:11:49;;;;;;;;;;;27.00;47.30;;;;;;1540436;76;795;-63
2021/06/23 00:13:51;;;;;;;;;;;27.10;47.40;;;;;;1544131;76;1922;-65
2021/06/23 00:15:53;;;;;;;;;;;27.00;47.10;;;;;;1528257;76;714;-65
2021/06/23 00:17:55;;;;;;;;;;;27.00;47.10;;;;;;1537292;76;770;-65
2021/06/23 00:19:57;;;;;;;;;;;27.00;47.30;;;;;;1540251;76;696;-65
2021/06/23 00:21:59;;;;;;;;;;;27.00;47.20;;;;;;1536417;76;790;-67
2021/06/23 00:24:01;;;;;;;;;;;27.00;47.00;;;;;;1536056;76;1141;-65
2021/06/23 00:26:02;;;;;;;;;;;27.10;47.00;;;;;;1545554;76;756;-65
2021/06/23 00:28:05;;;;;;;;;;;27.10;47.10;;;;;;1543356;76;701;-67
2021/06/23 00:30:07;;;;;;;;;;;27.00;46.90;;;;;;1542824;76;746;-63
2021/06/23 00:32:10;;;;;;;;;;;27.00;46.70;;;;;;1541953;76;765;-65
2021/06/23 00:34:12;;;;;;;;;;;27.00;46.80;;;;;;1550843;74;1916;-64
2021/06/23 00:36:14;;;;;;;;;;;27.10;46.80;;;;;;1546490;76;798;-65
2021/06/23 00:38:15;;;;;;;;;;;27.00;46.90;;;;;;1537209;76;772;-61
2021/06/23 00:40:17;;;;;;;;;;;27.10;46.90;;;;;;1541042;76;802;-65
2021/06/23 00:42:19;;;;;;;;;;;27.00;47.00;;;;;;1542286;76;741;-67
2021/06/23 00:44:21;;;;;;;;;;;27.00;46.70;;;;;;1547449;76;1160;-67
2021/06/23 00:46:23;;;;;;;;;;;27.00;46.70;;;;;;1527481;76;781;-67
2021/06/23 00:48:28;;;;;;;;;;;27.00;46.80;;;;;;1536639;76;800;-67
2021/06/23 00:50:30;;;;;;;;;;;27.00;46.70;;;;;;1541936;76;1126;-64
2021/06/23 00:52:32;;;;;;;;;;;27.00;46.80;;;;;;1548780;76;724;-64
2021/06/23 00:54:34;;;;;;;;;;;27.00;46.80;;;;;;1547860;76;1944;-65
2021/06/23 00:56:36;;;;;;;;;;;27.00;46.80;;;;;;1533049;76;729;-64
2021/06/23 00:58:38;;;;;;;;;;;27.10;47.30;;;;;;1542203;76;770;-65
2021/06/23 01:00:40;;;;;;;;;;;27.00;46.80;;;;;;1538552;76;671;-64
2021/06/23 01:02:41;;;;;;;;;;;27.10;47.40;;;;;;1542146;76;810;-65
2021/06/23 01:04:43;;;;;;;;;;;27.00;47.20;;;;;;1535804;76;1137;-65
2021/06/23 01:06:45;;;;;;;;;;;27.10;47.30;;;;;;1536328;76;771;-65
2021/06/23 01:08:47;;;;;;;;;;;27.10;47.20;;;;;;1537917;76;741;-62
2021/06/23 01:10:49;;;;;;;;;;;27.10;47.40;;;;;;1546660;76;736;-64
2021/06/23 01:12:52;;;;;;;;;;;27.00;47.50;;;;;;1559936;76;721;-65
2021/06/23 01:14:58;;;;;;;;;;;27.10;47.30;;;;;;1530842;76;1956;-66
2021/06/23 01:16:59;;;;;;;;;;;26.90;46.60;;;;;;1558977;76;1815;-64
2021/06/23 01:19:01;;;;;;;;;;;27.00;47.30;;;;;;1538557;76;735;-65
2021/06/23 01:21:03;;;;;;;;;;;27.00;47.30;;;;;;1555097;76;802;-65
2021/06/23 01:23:05;;;;;;;;;;;27.00;47.30;;;;;;1538288;76;757;-65
2021/06/23 01:25:12;;;;;;;;;;;27.00;47.30;;;;;;1555205;75;1124;-65
2021/06/23 01:27:11;;;;;;;;;;;27.00;47.20;;;;;;1550569;76;1642;-66
2021/06/23 01:29:13;;;;;;;;;;;27.00;47.20;;;;;;1538208;76;848;-64
2021/06/23 01:31:15;;;;;;;;;;;26.90;46.50;;;;;;1539882;76;748;-64
2021/06/23 01:33:17;;;;;;;;;;;27.00;47.20;;;;;;1544871;76;812;-63
2021/06/23 01:35:19;;;;;;;;;;;27.00;47.10;;;;;;1539887;76;1963;-64
2021/06/23 01:37:20;;;;;;;;;;;27.00;47.10;;;;;;1537864;76;833;-64
2021/06/23 01:39:22;;;;;;;;;;;27.00;47.10;;;;;;1541620;76;793;-64
2021/06/23 01:41:25;;;;;;;;;;;27.00;47.10;;;;;;1531750;76;782;-64
2021/06/23 01:43:27;;;;;;;;;;;27.00;47.20;;;;;;1561024;76;753;-64
2021/06/23 01:45:28;;;;;;;;;;;26.90;46.50;;;;;;1562466;74;1170;-65
2021/06/23 01:47:30;;;;;;;;;;;27.00;47.30;;;;;;1536881;76;821;-65
2021/06/23 01:49:32;;;;;;;;;;;26.90;46.40;;;;;;1548294;76;800;-67
2021/06/23 01:51:34;;;;;;;;;;;26.90;46.50;;;;;;1538046;76;807;-65
2021/06/23 01:53:36;;;;;;;;;;;26.90;46.40;;;;;;1553118;76;765;-64
2021/06/23 01:55:38;;;;;;;;;;;27.00;47.00;;;;;;1538059;76;1956;-65
2021/06/23 01:57:40;;;;;;;;;;;26.90;46.30;;;;;;1551491;76;794;-65
2021/06/23 01:59:42;;;;;;;;;;;26.90;46.30;;;;;;1538806;76;743;-66
2021/06/23 02:01:51;;;;;;;;;;;26.90;46.40;;;;;;1539801;76;761;-66
2021/06/23 02:03:55;;;;;;;;;;;26.90;46.30;;;;;;1538352;74;1150;-67
2021/06/23 02:06:04;;;;;;;;;;;26.90;46.30;;;;;;1544389;76;1092;-65
2021/06/23 02:08:14;;;;;;;;;;;26.90;46.50;;;;;;1540318;76;790;-65
2021/06/23 02:10:20;;;;;;;;;;;26.90;46.50;;;;;;1552103;76;739;-66
2021/06/23 02:12:27;;;;;;;;;;;26.90;46.70;;;;;;1566420;76;688;-65
2021/06/23 02:14:34;;;;;;;;;;;26.90;46.80;;;;;;1565257;74;2004;-65
2021/06/23 02:16:37;;;;;;;;;;;26.90;46.80;;;;;;1560840;76;799;-65
2021/06/23 02:18:39;;;;;;;;;;;26.90;47.00;;;;;;1550558;76;723;-66
2021/06/23 02:20:41;;;;;;;;;;;26.90;46.50;;;;;;1534069;76;722;-66
2021/06/23 02:22:43;;;;;;;;;;;26.90;46.30;;;;;;1548303;76;730;-63
2021/06/23 02:24:45;;;;;;;;;;;26.90;46.30;;;;;;1542858;76;1071;-67
2021/06/23 02:26:47;;;;;;;;;;;26.90;46.40;;;;;;1551967;76;811;-68
2021/06/23 02:28:48;;;;;;;;;;;26.90;46.50;;;;;;1539914;76;728;-66
2021/06/23 02:30:51;;;;;;;;;;;26.90;46.50;;;;;;1538412;76;749;-66
2021/06/23 02:32:53;;;;;;;;;;;26.90;46.40;;;;;;1551156;76;769;-65
2021/06/23 02:34:56;;;;;;;;;;;26.90;46.50;;;;;;1546430;76;1947;-67
2021/06/23 02:36:58;;;;;;;;;;;26.90;46.60;;;;;;1539462;76;746;-66
2021/06/23 02:39:00;;;;;;;;;;;26.90;46.60;;;;;;1532573;76;705;-67
2021/06/23 02:41:02;;;;;;;;;;;26.90;46.50;;;;;;1531462;76;753;-65
2021/06/23 02:43:04;;;;;;;;;;;26.90;46.50;;;;;;1552447;76;678;-65
2021/06/23 02:45:06;;;;;;;;;;;26.90;46.50;;;;;;1541547;76;1189;-66
2021/06/23 02:47:09;;;;;;;;;;;26.90;46.60;;;;;;1531662;76;855;-64
2021/06/23 02:49:11;;;;;;;;;;;27.00;47.30;;;;;;1554873;76;665;-66
2021/06/23 02:51:20;;;;;;;;;;;26.90;46.80;;;;;;1551294;76;812;-65
2021/06/23 02:53:22;;;;;;;;;;;26.90;46.80;;;;;;1540474;76;718;-66
2021/06/23 02:55:23;;;;;;;;;;;26.90;46.70;;;;;;1560003;74;1946;-65
2021/06/23 02:57:25;;;;;;;;;;;26.90;46.80;;;;;;1545126;76;737;-66
2021/06/23 02:59:27;;;;;;;;;;;26.80;47.30;;;;;;1538093;76;722;-69
2021/06/23 03:01:29;;;;;;;;;;;26.90;47.30;;;;;;1540104;76;782;-67
2021/06/23 03:03:31;;;;;;;;;;;26.90;47.20;;;;;;1542595;76;704;-66
2021/06/23 03:05:33;;;;;;;;;;;26.90;47.10;;;;;;1540095;76;1074;-68
2021/06/23 03:07:35;;;;;;;;;;;27.00;47.90;;;;;;1539256;76;798;-67
2021/06/23 03:09:37;;;;;;;;;;;26.90;47.20;;;;;;1537802;76;717;-68
2021/06/23 03:11:39;;;;;;;;;;;26.90;47.10;;;;;;1540188;76;704;-67
2021/06/23 03:13:41;;;;;;;;;;;26.90;47.00;;;;;;1540032;76;687;-66
2021/06/23 03:15:43;;;;;;;;;;;26.90;47.00;;;;;;1543654;75;1949;-68
2021/06/23 03:17:44;;;;;;;;;;;27.00;47.80;;;;;;1544177;76;650;-66
2021/06/23 03:19:46;;;;;;;;;;;26.90;47.20;;;;;;1538885;76;761;-67
2021/06/23 03:21:48;;;;;;;;;;;27.00;47.80;;;;;;1544655;76;813;-68
2021/06/23 03:23:51;;;;;;;;;;;26.90;47.20;;;;;;1543953;76;1141;-67
2021/06/23 03:25:53;;;;;;;;;;;27.00;47.90;;;;;;1546397;76;866;-67
2021/06/23 03:27:55;;;;;;;;;;;26.90;47.20;;;;;;1544493;76;724;-67
2021/06/23 03:29:57;;;;;;;;;;;26.90;47.20;;;;;;1534869;76;735;-68
2021/06/23 03:31:59;;;;;;;;;;;26.90;47.40;;;;;;1541178;76;748;-67
2021/06/23 03:34:01;;;;;;;;;;;26.90;47.20;;;;;;1540855;76;1086;-68
2021/06/23 03:36:04;;;;;;;;;;;26.90;47.50;;;;;;1533151;76;1949;-68
2021/06/23 03:38:05;;;;;;;;;;;26.90;47.30;;;;;;1550507;76;730;-67
2021/06/23 03:40:08;;;;;;;;;;;27.00;48.20;;;;;;1560641;76;728;-67
2021/06/23 03:42:10;;;;;;;;;;;27.00;48.20;;;;;;1558390;76;751;-66
2021/06/23 03:44:11;;;;;;;;;;;27.00;48.10;;;;;;1546229;74;1164;-67
2021/06/23 03:46:13;;;;;;;;;;;27.00;48.30;;;;;;1545884;76;786;-68
2021/06/23 03:48:15;;;;;;;;;;;26.90;47.60;;;;;;1537007;76;748;-64
2021/06/23 03:50:17;;;;;;;;;;;26.90;47.50;;;;;;1537567;76;779;-67
2021/06/23 03:52:19;;;;;;;;;;;26.90;47.50;;;;;;1556313;76;834;-65
2021/06/23 03:54:21;;;;;;;;;;;27.00;48.10;;;;;;1524524;76;1175;-67
2021/06/23 03:56:23;;;;;;;;;;;26.90;47.60;;;;;;1551181;76;1954;-67
2021/06/23 03:58:25;;;;;;;;;;;27.00;48.20;;;;;;1559841;75;744;-67
2021/06/23 04:00:27;;;;;;;;;;;26.90;47.50;;;;;;1538379;76;756;-67
2021/06/23 04:02:29;;;;;;;;;;;27.00;48.10;;;;;;1542016;76;697;-68
2021/06/23 04:04:31;;;;;;;;;;;26.90;47.40;;;;;;1538789;76;1112;-65
2021/06/23 04:06:33;;;;;;;;;;;26.90;47.40;;;;;;1543142;76;814;-68
2021/06/23 04:08:35;;;;;;;;;;;26.90;47.40;;;;;;1547232;76;892;-67
2021/06/23 04:10:37;;;;;;;;;;;26.90;47.50;;;;;;1550434;76;730;-69
2021/06/23 04:12:39;;;;;;;;;;;26.90;47.40;;;;;;1535927;76;809;-69
2021/06/23 04:14:41;;;;;;;;;;;26.90;47.30;;;;;;1538000;76;1160;-68
2021/06/23 04:16:43;;;;;;;;;;;26.90;47.20;;;;;;1543555;76;1941;-67
2021/06/23 04:18:45;;;;;;;;;;;26.90;47.30;;;;;;1539703;76;764;-66
2021/06/23 04:20:46;;;;;;;;;;;27.00;47.90;;;;;;1535177;76;768;-67
2021/06/23 04:22:48;;;;;;;;;;;26.90;47.30;;;;;;1525408;76;694;-67
2021/06/23 04:24:52;;;;;;;;;;;26.90;47.30;;;;;;1538192;76;1122;-67
2021/06/23 04:26:54;;;;;;;;;;;26.90;47.30;;;;;;1548272;76;863;-68
2021/06/23 04:28:56;;;;;;;;;;;26.90;47.30;;;;;;1555465;76;703;-67
2021/06/23 04:30:58;;;;;;;;;;;26.90;47.30;;;;;;1544233;76;782;-68
2021/06/23 04:33:00;;;;;;;;;;;26.90;47.10;;;;;;1550600;76;802;-67
2021/06/23 04:35:03;;;;;;;;;;;26.90;47.10;;;;;;1539566;76;1120;-68
2021/06/23 04:37:05;;;;;;;;;;;26.90;47.30;;;;;;1557288;76;1900;-66
2021/06/23 04:39:07;;;;;;;;;;;26.90;47.20;;;;;;1566630;76;567;-68
2021/06/23 04:41:09;;;;;;;;;;;26.90;47.20;;;;;;1546861;76;717;-68
2021/06/23 04:43:11;;;;;;;;;;;26.90;47.20;;;;;;1561813;76;777;-68
2021/06/23 04:45:13;;;;;;;;;;;26.90;47.40;;;;;;1545982;75;1100;-67
2021/06/23 04:47:15;;;;;;;;;;;26.90;47.40;;;;;;1540287;76;725;-69
2021/06/23 04:49:17;;;;;;;;;;;26.90;47.30;;;;;;1526265;76;732;-67
2021/06/23 04:51:19;;;;;;;;;;;26.90;47.50;;;;;;1539695;76;725;-68
2021/06/23 04:53:21;;;;;;;;;;;26.90;47.40;;;;;;1557386;76;765;-67
2021/06/23 04:55:22;;;;;;;;;;;26.90;47.30;;;;;;1551982;76;1955;-68
2021/06/23 04:57:24;;;;;;;;;;;26.90;47.30;;;;;;1539754;76;752;-67
2021/06/23 04:59:27;;;;;;;;;;;26.90;47.30;;;;;;1547441;76;721;-68
2021/06/23 05:01:29;;;;;;;;;;;26.90;47.40;;;;;;1545322;76;727;-66
2021/06/23 05:03:31;;;;;;;;;;;26.90;47.40;;;;;;1542353;76;701;-67
2021/06/23 05:05:33;;;;;;;;;;;26.90;47.40;;;;;;1573575;71;2135;-74
2021/06/23 05:07:35;;;;;;;;;;;26.90;47.20;;;;;;1607489;73;743;-75
2021/06/23 05:09:37;;;;;;;;;;;26.90;47.10;;;;;;1606649;73;770;-75
2021/06/23 05:11:39;;;;;;;;;;;26.90;47.20;;;;;;1604460;73;742;-71
2021/06/23 05:13:41;;;;;;;;;;;26.90;47.30;;;;;;1606068;73;768;-75
2021/06/23 05:15:43;;;;;;;;;;;26.90;47.30;;;;;;1606064;72;1949;-76
2021/06/23 05:17:45;;;;;;;;;;;26.90;47.20;;;;;;1604636;73;732;-74
2021/06/23 05:19:47;;;;;;;;;;;26.90;47.20;;;;;;1605055;73;757;-75
2021/06/23 05:21:49;;;;;;;;;;;27.00;48.00;;;;;;1604929;73;738;-73
2021/06/23 05:23:51;;;;;;;;;;;26.90;47.20;;;;;;1610174;72;640;-78
2021/06/23 05:25:53;;;;;;;;;;;26.90;47.30;;;;;;1605340;72;1128;-70
2021/06/23 05:27:55;;;;;;;;;;;27.00;48.10;;;;;;1604464;72;773;-70
2021/06/23 05:29:57;;;;;;;;;;;26.80;46.70;;;;;;1606427;73;895;-70
2021/06/23 05:31:59;;;;;;;;;;;26.80;46.60;;;;;;1595579;72;787;-69
2021/06/23 05:34:01;;;;;;;;;;;26.80;46.50;;;;;;1597401;73;749;-69
2021/06/23 05:36:03;;;;;;;;;;;26.80;46.50;;;;;;1598467;73;1940;-69
2021/06/23 05:38:04;;;;;;;;;;;26.80;46.60;;;;;;1596352;73;702;-68
2021/06/23 05:40:07;;;;;;;;;;;26.80;46.70;;;;;;1593779;73;733;-70
2021/06/23 05:42:09;;;;;;;;;;;26.70;46.70;;;;;;1595593;73;627;-69
2021/06/23 05:44:11;;;;;;;;;;;26.70;46.70;;;;;;1592373;73;915;-69
2021/06/23 05:46:12;;;;;;;;;;;26.70;46.70;;;;;;1594924;73;745;-69
2021/06/23 05:48:14;;;;;;;;;;;26.70;46.70;;;;;;1600654;73;720;-67
2021/06/23 05:50:16;;;;;;;;;;;26.70;47.00;;;;;;1564725;75;765;-69
2021/06/23 05:52:18;;;;;;;;;;;26.70;47.20;;;;;;1548261;76;725;-68
2021/06/23 05:54:20;;;;;;;;;;;26.70;47.10;;;;;;1546925;76;1152;-68
2021/06/23 05:56:22;;;;;;;;;;;26.60;47.50;;;;;;1554540;76;1933;-68
2021/06/23 05:58:24;;;;;;;;;;;26.60;47.30;;;;;;1549528;76;740;-69
2021/06/23 06:00:26;;;;;;;;;;;26.60;47.20;;;;;;1551955;76;745;-69
2021/06/23 06:02:27;;;;;;;;;;;26.60;47.10;;;;;;1544795;76;744;-68
2021/06/23 06:04:29;;;;;;;;;;;26.60;47.00;;;;;;1549097;76;1080;-68
2021/06/23 06:06:31;;;;;;;;;;;26.60;46.90;;;;;;1548458;76;746;-68
2021/06/23 06:08:33;;;;;;;;;;;26.70;47.00;;;;;;1541687;76;714;-68
2021/06/23 06:10:35;;;;;;;;;;;26.70;47.00;;;;;;1544585;75;829;-69
2021/06/23 06:12:37;;;;;;;;;;;26.60;47.00;;;;;;1549901;76;586;-68
2021/06/23 06:14:39;;;;;;;;;;;26.60;47.10;;;;;;1551894;76;1161;-68
2021/06/23 06:16:41;;;;;;;;;;;26.60;47.30;;;;;;1544919;75;1939;-70
2021/06/23 06:18:45;;;;;;;;;;;26.70;47.30;;;;;;1548100;75;758;-68
2021/06/23 06:20:46;;;;;;;;;;;26.60;47.30;;;;;;1543338;75;1733;-68
2021/06/23 06:22:48;;;;;;;;;;;26.60;47.30;;;;;;1542328;75;904;-69
2021/06/23 06:24:50;;;;;;;;;;;26.60;47.30;;;;;;1541464;76;1141;-68
2021/06/23 06:26:52;;;;;;;;;;;26.60;47.30;;;;;;1543672;76;829;-68
2021/06/23 06:28:54;;;;;;;;;;;26.60;47.30;;;;;;1533033;75;674;-70
2021/06/23 06:30:56;;;;;;;;;;;26.60;47.20;;;;;;1531566;75;799;-70
2021/06/23 06:32:57;;;;;;;;;;;26.50;47.40;;;;;;1547189;76;748;-70
2021/06/23 06:34:59;;;;;;;;;;;26.40;47.60;;;;;;1545996;76;1104;-70
2021/06/23 06:37:01;;;;;;;;;;;26.40;47.60;;;;;;1543601;75;1950;-69
2021/06/23 06:39:03;;;;;;;;;;;26.50;47.50;;;;;;1542506;76;797;-72
2021/06/23 06:41:05;;;;;;;;;;;26.40;47.60;;;;;;1543142;75;808;-71
2021/06/23 06:43:07;;;;;;;;;;;26.40;47.50;;;;;;1544872;75;754;-70
2021/06/23 06:45:09;;;;;;;;;;;26.40;47.70;;;;;;1545536;75;1175;-70
2021/06/23 06:47:11;;;;;;;;;;;26.30;48.00;;;;;;1538445;76;765;-71
2021/06/23 06:49:13;;;;;;;;;;;26.20;48.10;;;;;;1536960;76;805;-72
2021/06/23 06:51:14;;;;;;;;;;;26.20;48.40;;;;;;1554313;76;749;-72
2021/06/23 06:53:16;;;;;;;;;;;26.10;48.70;;;;;;1537861;76;735;-71
2021/06/23 06:55:21;;;;;;;;;;;25.90;48.50;;;;;;1543905;76;1165;-71
2021/06/23 06:57:23;;;;;;;;;;;25.90;48.70;;;;;;1543090;75;1923;-70
2021/06/23 06:59:24;;;;;;;;;;;25.80;49.00;;;;;;1547277;76;703;-71
2021/06/23 07:01:26;;;;;;;;;;;25.80;49.00;;;;;;1536111;76;716;-70
2021/06/23 07:03:29;;;;;;;;;;;25.90;49.20;;;;;;1550565;76;766;-71
2021/06/23 07:05:31;;;;;;;;;;;25.90;49.20;;;;;;1549167;75;1147;-72
2021/06/23 07:07:33;;;;;;;;;;;25.90;49.40;;;;;;1544938;75;750;-68
2021/06/23 07:09:35;;;;;;;;;;;25.90;49.80;;;;;;1547846;75;716;-72
2021/06/23 07:11:37;;;;;;;;;;;25.90;49.60;;;;;;1544042;76;806;-70
2021/06/23 07:13:39;;;;;;;;;;;26.00;50.10;;;;;;1541438;76;641;-71
2021/06/23 07:15:41;;;;;;;;;;;26.00;50.30;;;;;;1551839;76;1147;-72
2021/06/23 07:17:43;;;;;;;;;;;26.00;50.40;;;;;;1551274;76;1935;-73
2021/06/23 07:19:45;;;;;;;;;;;26.00;50.50;;;;;;1550615;75;821;-73
2021/06/23 07:21:46;;;;;;;;;;;26.20;50.50;;;;;;1541833;76;897;-73
2021/06/23 07:23:49;;;;;;;;;;;26.20;50.30;;;;;;1544770;76;700;-71
2021/06/23 07:25:50;;;;;;;;;;;26.10;50.30;;;;;;1543129;76;1131;-72
2021/06/23 07:27:52;;;;;;;;;;;26.10;50.10;;;;;;1546830;75;694;-76
2021/06/23 07:29:54;;;;;;;;;;;26.20;50.20;;;;;;1546902;75;739;-72
2021/06/23 07:31:59;;;;;;;;;;;26.00;50.20;;;;;;1548775;75;776;-72
2021/06/23 07:36:35;;;;;;;;;;;26.00;50.40;;;;;;1550059;75;1161;-72
2021/06/23 07:38:34;;;;;;;;;;;26.00;50.70;;;;;;1545101;75;1580;-70
2021/06/23 07:40:43;;;;;;;;;;;26.10;50.70;;;;;;1539735;75;767;-71
2021/06/23 07:42:45;;;;;;;;;;;26.20;51.00;;;;;;1547456;75;801;-71
2021/06/23 07:44:58;;;;;;;;;;;25.90;50.60;;;;;;1548572;75;1160;-72
2021/06/23 07:47:04;;;;;;;;;;;25.90;50.60;;;;;;1545589;75;1682;-74
2021/06/23 07:49:01;;;;;;;;;;;25.90;51.30;;;;;;1545752;75;1667;-75
2021/06/23 07:53:15;;;;;;;;;;;26.00;51.30;;;;;;1548951;75;861;-74
2021/06/23 07:55:13;;;;;;;;;;;25.90;50.50;;;;;;1517598;76;1767;-75
2021/06/23 08:08:39;;;;;;;;;;;25.60;51.40;;;;;;1525476;76;867;-76
2021/06/23 08:10:36;;;;;;;;;;;25.50;51.90;;;;;;1524585;76;1733;-76
2021/06/23 08:12:54;;;;;;;;;;;25.40;51.90;;;;;;1513471;76;1065;-74
2021/06/23 08:14:56;;;;;;;;;;;25.30;52.60;;;;;;1526595;76;1639;-77
2021/06/23 08:16:58;;;;;;;;;;;25.30;52.30;;;;;;1541734;76;1944;-78
2021/06/23 08:19:00;;;;;;;;;;;25.40;52.90;;;;;;1542328;76;755;-76
2021/06/23 08:21:02;;;;;;;;;;;25.40;52.50;;;;;;1543535;76;735;-76
2021/06/23 08:23:05;;;;;;;;;;;25.60;52.10;;;;;;1542766;75;778;-76
2021/06/23 08:25:07;;;;;;;;;;;25.70;51.70;;;;;;1541651;76;1100;-76
2021/06/23 08:27:09;;;;;;;;;;;25.70;51.60;;;;;;1529868;76;679;-76
2021/06/23 08:29:10;;;;;;;;;;;25.70;51.30;;;;;;1545663;76;806;-76
2021/06/23 08:31:12;;;;;;;;;;;25.70;51.20;;;;;;1545266;76;740;-76
2021/06/23 08:33:14;;;;;;;;;;;25.70;51.20;;;;;;1546157;76;749;-77
2021/06/23 08:35:16;;;;;;;;;;;25.70;51.00;;;;;;1531509;76;1158;-75
2021/06/23 08:37:18;;;;;;;;;;;25.80;50.70;;;;;;1544414;76;1928;-74
2021/06/23 08:39:20;;;;;;;;;;;25.70;50.50;;;;;;1518514;77;759;-76
2021/06/23 08:41:26;;;;;;;;;;;25.70;50.60;;;;;;1550498;75;712;-77
2021/06/23 08:43:25;;;;;;;;;;;25.70;50.70;;;;;;1547641;75;1584;-77
2021/06/23 08:45:27;;;;;;;;;;;25.80;50.70;;;;;;1546926;75;1315;-78
2021/06/23 08:47:30;;;;;;;;;;;25.80;51.00;;;;;;1553996;75;713;-77
2021/06/23 08:49:32;;;;;;;;;;;25.90;50.70;;;;;;1550190;75;695;-78
2021/06/23 08:51:35;;;;;;;;;;;26.00;51.10;;;;;;1552246;75;739;-76
2021/06/23 08:53:37;;;;;;;;;;;26.10;50.70;;;;;;1548472;75;764;-77
2021/06/23 08:55:38;;;;;;;;;;;26.10;50.80;;;;;;1548907;75;1180;-77
2021/06/23 08:57:40;;;;;;;;;;;26.10;50.60;;;;;;1545822;76;1939;-78
2021/06/23 08:59:42;;;;;;;;;;;26.20;50.90;;;;;;1551593;75;762;-73
2021/06/23 09:01:44;;;;;;;;;;;26.10;50.20;;;;;;1549463;76;721;-77
2021/06/23 09:04:04;;;;;;;;;;;25.90;49.80;;;;;;1549105;75;834;-76
2021/06/23 09:06:06;;;;;;;;;;;25.90;50.00;;;;;;1550087;76;1102;-76
2021/06/23 09:08:08;;;;;;;;;;;25.90;50.00;;;;;;1551766;75;792;-76
2021/06/23 09:10:12;;;;;;;;;;;25.70;50.40;;;;;;1547802;75;739;-77
2021/06/23 09:12:13;;;;;;;;;;;25.60;50.80;;;;;;1536206;76;992;-78
2021/06/23 09:14:16;;;;;;;;;;;25.60;51.00;;;;;;1542719;76;1157;-78
2021/06/23 09:16:18;;;;;;;;;;;25.70;50.80;;;;;;1553919;75;766;-76
2021/06/23 09:18:21;;;;;;;;;;;25.80;50.40;;;;;;1552615;75;1931;-78
2021/06/23 09:20:23;;;;;;;;;;;25.90;50.00;;;;;;1553975;75;635;-73
2021/06/23 09:22:35;;;;;;;;;;;25.90;49.90;;;;;;1517008;77;1384;-77
2021/06/23 09:24:38;;;;;;;;;;;26.00;50.60;;;;;;1545341;75;1149;-76
2021/06/23 09:26:40;;;;;;;;;;;25.90;50.10;;;;;;1552956;75;739;-76
2021/06/23 09:28:41;;;;;;;;;;;25.90;50.20;;;;;;1550981;75;738;-77
2021/06/23 09:30:44;;;;;;;;;;;25.90;49.90;;;;;;1553834;75;720;-78
2021/06/23 09:32:48;;;;;;;;;;;25.70;50.20;;;;;;1551490;75;738;-78
2021/06/23 09:34:53;;;;;;;;;;;25.70;50.00;;;;;;1552565;75;1071;-75
2021/06/23 09:36:54;;;;;;;;;;;25.80;49.60;;;;;;1552925;75;1665;-75
2021/06/23 09:38:56;;;;;;;;;;;25.90;49.50;;;;;;1553098;75;1951;-76
2021/06/23 09:40:57;;;;;;;;;;;26.00;49.80;;;;;;1548123;75;797;-76
2021/06/23 09:43:01;;;;;;;;;;;25.90;49.10;;;;;;1550120;75;787;-75
2021/06/23 09:45:04;;;;;;;;;;;25.90;48.90;;;;;;1549493;75;1297;-75
2021/06/23 09:47:06;;;;;;;;;;;25.80;49.20;;;;;;1550262;75;722;-75
2021/06/23 09:49:12;;;;;;;;;;;25.70;48.80;;;;;;1547692;75;710;-73
2021/06/23 09:51:15;;;;;;;;;;;25.60;49.40;;;;;;1545321;75;751;-75
2021/06/23 09:53:19;;;;;;;;;;;25.50;49.00;;;;;;1540977;75;745;-74
2021/06/23 09:55:21;;;;;;;;;;;25.50;49.30;;;;;;1547491;75;1678;-76
2021/06/23 09:57:23;;;;;;;;;;;25.60;49.30;;;;;;1551191;75;1931;-75
2021/06/23 09:59:29;;;;;;;;;;;25.60;48.90;;;;;;1542005;75;714;-75
2021/06/23 10:01:31;;;;;;;;;;;25.60;49.60;;;;;;1549803;75;881;-75
2021/06/23 10:03:38;;;;;;;;;;;25.60;49.10;;;;;;1537545;76;956;-70
2021/06/23 10:05:40;;;;;;;;;;;25.50;49.60;;;;;;1544359;75;2062;-72
2021/06/23 10:07:42;;;;;;;;;;;25.50;49.30;;;;;;1544586;75;801;-75
2021/06/23 10:09:44;;;;;;;;;;;25.50;49.40;;;;;;1547740;75;907;-73
2021/06/23 10:11:46;;;;;;;;;;;25.50;49.80;;;;;;1525881;76;770;-73
2021/06/23 10:13:48;;;;;;;;;;;25.50;50.00;;;;;;1545241;76;794;-71
2021/06/23 10:15:50;;;;;;;;;;;25.50;49.90;;;;;;1524849;76;1155;-72
2021/06/23 10:17:52;;;;;;;;;;;25.40;50.10;;;;;;1549149;75;1943;-72
2021/06/23 10:19:54;;;;;;;;;;;25.50;50.10;;;;;;1549773;75;831;-70
2021/06/23 10:21:56;;;;;;;;;;;25.50;49.90;;;;;;1548111;75;688;-72
2021/06/23 10:23:58;;;;;;;;;;;25.70;49.40;;;;;;1546419;75;840;-72
2021/06/23 10:26:00;;;;;;;;;;;25.70;49.70;;;;;;1547512;76;1167;-71
2021/06/23 10:28:02;;;;;;;;;;;25.70;49.80;;;;;;1549574;75;672;-72
2021/06/23 10:30:04;;;;;;;;;;;25.70;50.00;;;;;;1550367;75;671;-71
2021/06/23 10:32:07;;;;;;;;;;;25.80;49.80;;;;;;1545743;76;808;-71
2021/06/23 10:34:09;;;;;;;;;;;25.80;49.10;;;;;;1547231;76;724;-71
2021/06/23 10:36:11;;;;;;;;;;;25.70;49.10;;;;;;1549607;75;1188;-72
2021/06/23 10:38:13;;;;;;;;;;;25.60;49.20;;;;;;1545631;76;1935;-73
2021/06/23 10:40:15;;;;;;;;;;;25.50;49.30;;;;;;1494518;76;1148;-72
2021/06/23 10:42:18;;;;;;;;;;;25.50;49.40;;;;;;1520774;76;822;-72
2021/06/23 10:44:21;;;;;;;;;;;25.50;49.40;;;;;;1520775;76;1085;-72
2021/06/23 10:46:37;;;;;;;;;;;25.30;49.70;;;;;;1549671;75;727;-72
2021/06/23 10:48:54;;;;;;;;;;;25.30;49.90;;;;;;1544716;76;1478;-72
2021/06/23 10:50:56;;;;;;;;;;;25.20;49.90;;;;;;1546352;76;811;-71
2021/06/23 10:52:58;;;;;;;;;;;25.30;50.50;;;;;;1549173;76;802;-72
2021/06/23 10:55:01;;;;;;;;;;;25.30;50.10;;;;;;1543331;76;1155;-74
2021/06/23 10:57:03;;;;;;;;;;;25.30;50.20;;;;;;1552487;75;826;-73
2021/06/23 10:59:06;;;;;;;;;;;25.60;49.90;;;;;;1501990;77;1954;-71
2021/06/23 11:01:10;;;;;;;;;;;25.80;49.40;;;;;;1505180;76;1713;-73
2021/06/23 11:03:13;;;;;;;;;;;25.90;49.10;;;;;;1522203;76;1041;-72
2021/06/23 11:05:17;;;;;;;;;;;26.00;49.30;;;;;;1554701;74;3136;-64
2021/06/23 11:07:36;;;;;;;;;;;25.90;48.60;;;;;;1558558;75;746;-65
2021/06/23 11:09:38;;;;;;;;;;;26.00;49.10;;;;;;1554211;75;784;-64
2021/06/23 11:11:40;;;;;;;;;;;26.00;48.80;;;;;;1549739;75;812;-64
2021/06/23 11:13:42;;;;;;;;;;;26.00;48.80;;;;;;1555521;75;1249;-65
2021/06/23 11:15:49;;;;;;;;;;;26.10;48.70;;;;;;1557797;75;1139;-64
2021/06/23 11:17:48;;;;;;;;;;;26.20;48.60;;;;;;1553336;75;1931;-67
2021/06/23 11:19:50;;;;;;;;;;;26.20;48.60;;;;;;1557837;75;932;-64
2021/06/23 11:21:53;;;;;;;;;;;26.20;48.50;;;;;;1550086;75;774;-68
2021/06/23 11:23:59;;;;;;;;;;;26.30;48.40;;;;;;1556843;75;1601;-69
2021/06/23 11:26:01;;;;;;;;;;;26.30;48.40;;;;;;1561234;75;1116;-65
2021/06/23 11:28:12;;;;;;;;;;;26.30;48.40;;;;;;1560329;75;792;-65
2021/06/23 11:30:23;;;;;;;;;;;26.40;48.00;;;;;;1560364;75;705;-66
2021/06/23 11:32:26;;;;;;;;;;;26.50;47.90;;;;;;1557000;75;898;-65
2021/06/23 11:34:39;;;;;;;;;;;26.40;47.70;;;;;;1551745;75;774;-68
2021/06/23 11:36:41;;;;;;;;;;;26.20;48.00;;;;;;1560311;75;821;-65
2021/06/23 11:38:43;;;;;;;;;;;26.20;48.20;;;;;;1560891;75;1944;-66
2021/06/23 11:40:44;;;;;;;;;;;26.30;48.10;;;;;;1562552;75;744;-68
2021/06/23 11:42:46;;;;;;;;;;;26.30;48.10;;;;;;1559415;75;687;-67
2021/06/23 11:44:48;;;;;;;;;;;26.30;47.90;;;;;;1560333;75;1143;-64
2021/06/23 11:46:50;;;;;;;;;;;26.30;47.80;;;;;;1560499;75;675;-63
2021/06/23 11:48:52;;;;;;;;;;;26.20;48.30;;;;;;1554458;75;787;-70
2021/06/23 11:50:54;;;;;;;;;;;26.20;48.40;;;;;;1563070;75;712;-69
2021/06/23 11:52:56;;;;;;;;;;;26.20;48.40;;;;;;1552502;75;797;-69
2021/06/23 11:54:58;;;;;;;;;;;26.20;47.50;;;;;;1566973;75;1153;-65
2021/06/23 11:57:00;;;;;;;;;;;26.20;47.80;;;;;;1561307;75;802;-65
2021/06/23 11:59:02;;;;;;;;;;;26.00;48.10;;;;;;1558030;76;1952;-66
2021/06/23 12:01:04;;;;;;;;;;;25.90;47.60;;;;;;1551648;76;943;-66
2021/06/23 12:03:09;;;;;;;;;;;25.80;47.70;;;;;;1554806;75;759;-67
2021/06/23 12:05:11;;;;;;;;;;;25.70;48.10;;;;;;1557833;75;1158;-65
2021/06/23 12:07:13;;;;;;;;;;;25.50;48.60;;;;;;1559600;76;765;-64
2021/06/23 12:09:15;;;;;;;;;;;25.50;48.90;;;;;;1556306;76;764;-65
2021/06/23 12:11:17;;;;;;;;;;;25.50;49.00;;;;;;1557843;76;747;-66
2021/06/23 12:13:19;;;;;;;;;;;25.40;49.20;;;;;;1560159;75;788;-66
2021/06/23 12:15:21;;;;;;;;;;;25.50;49.40;;;;;;1560454;75;1147;-65
2021/06/23 12:17:23;;;;;;;;;;;25.50;49.30;;;;;;1563451;75;786;-65
2021/06/23 12:19:25;;;;;;;;;;;25.50;48.90;;;;;;1560474;75;1935;-66
2021/06/23 12:21:29;;;;;;;;;;;25.50;49.20;;;;;;1552824;75;704;-66
2021/06/23 12:23:32;;;;;;;;;;;25.50;49.80;;;;;;1560269;75;600;-68
2021/06/23 12:25:35;;;;;;;;;;;25.60;49.90;;;;;;1558874;75;1121;-62
2021/06/23 12:27:37;;;;;;;;;;;25.60;49.70;;;;;;1558296;75;705;-67